sensor_id;sensor_type;location;lat;lon;timestamp;temperature;humidity
17843;DHT22;69286;48.222;16.332;2023-04-24T00:01:03;15.60;86.00
17843;DHT22;69286;48.222;16.332;2023-04-24T00:03:33;15.60;86.40
17843;DHT22;69286;48.222;16.332;2023-04-24T00:06:01;15.60;85.90
17843;DHT22;69286;48.222;16.332;2023-04-24T00:08:28;15.60;86.10
17843;DHT22;69286;48.222;16.332;2023-04-24T00:10:55;15.60;85.70
17843;DHT22;69286;48.222;16.332;2023-04-24T00:13:22;15.60;85.60
17843;DHT22;69286;48.222;16.332;2023-04-24T00:15:49;15.60;85.70
17843;DHT22;69286;48.222;16.332;2023-04-24T00:18:16;15.60;86.00
17843;DHT22;69286;48.222;16.332;2023-04-24T00:20:43;15.60;85.60
17843;DHT22;69286;48.222;16.332;2023-04-24T00:23:13;15.70;85.60
17843;DHT22;69286;48.222;16.332;2023-04-24T00:25:40;15.70;85.00
17843;DHT22;69286;48.222;16.332;2023-04-24T00:28:07;15.70;85.10
17843;DHT22;69286;48.222;16.332;2023-04-24T00:30:34;15.70;84.90
17843;DHT22;69286;48.222;16.332;2023-04-24T00:33:01;15.70;85.00
17843;DHT22;69286;48.222;16.332;2023-04-24T00:35:28;15.70;84.90
17843;DHT22;69286;48.222;16.332;2023-04-24T00:37:55;15.80;84.80
17843;DHT22;69286;48.222;16.332;2023-04-24T00:40:23;15.70;84.80
17843;DHT22;69286;48.222;16.332;2023-04-24T00:42:50;15.70;84.50
17843;DHT22;69286;48.222;16.332;2023-04-24T00:45:18;15.80;84.50
17843;DHT22;69286;48.222;16.332;2023-04-24T00:47:45;15.70;84.70
17843;DHT22;69286;48.222;16.332;2023-04-24T00:50:14;15.70;84.80
17843;DHT22;69286;48.222;16.332;2023-04-24T00:52:41;15.70;85.10
17843;DHT22;69286;48.222;16.332;2023-04-24T00:55:09;15.70;84.30
17843;DHT22;69286;48.222;16.332;2023-04-24T00:57:37;15.80;84.20
17843;DHT22;69286;48.222;16.332;2023-04-24T01:00:06;15.80;84.10
17843;DHT22;69286;48.222;16.332;2023-04-24T01:02:37;15.80;84.20
17843;DHT22;69286;48.222;16.332;2023-04-24T01:05:06;15.80;84.20
17843;DHT22;69286;48.222;16.332;2023-04-24T01:07:34;15.80;84.30
17843;DHT22;69286;48.222;16.332;2023-04-24T01:10:02;15.80;84.50
17843;DHT22;69286;48.222;16.332;2023-04-24T01:12:30;15.70;84.80
17843;DHT22;69286;48.222;16.332;2023-04-24T01:14:59;15.70;85.00
17843;DHT22;69286;48.222;16.332;2023-04-24T01:17:26;15.70;85.30
17843;DHT22;69286;48.222;16.332;2023-04-24T01:19:53;15.70;85.40
17843;DHT22;69286;48.222;16.332;2023-04-24T01:22:23;15.70;85.40
17843;DHT22;69286;48.222;16.332;2023-04-24T01:24:51;15.70;85.60
17843;DHT22;69286;48.222;16.332;2023-04-24T01:27:19;15.60;85.70
17843;DHT22;69286;48.222;16.332;2023-04-24T01:29:47;15.50;86.20
17843;DHT22;69286;48.222;16.332;2023-04-24T01:32:15;15.50;86.50
17843;DHT22;69286;48.222;16.332;2023-04-24T01:34:42;15.50;86.30
17843;DHT22;69286;48.222;16.332;2023-04-24T01:37:12;15.40;86.90
17843;DHT22;69286;48.222;16.332;2023-04-24T01:39:40;15.40;87.20
17843;DHT22;69286;48.222;16.332;2023-04-24T01:42:07;15.40;87.20
17843;DHT22;69286;48.222;16.332;2023-04-24T01:44:34;15.40;86.80
17843;DHT22;69286;48.222;16.332;2023-04-24T01:47:01;15.30;87.30
17843;DHT22;69286;48.222;16.332;2023-04-24T01:49:28;15.30;87.30
17843;DHT22;69286;48.222;16.332;2023-04-24T01:51:56;15.30;87.50
17843;DHT22;69286;48.222;16.332;2023-04-24T01:54:23;15.20;87.50
17843;DHT22;69286;48.222;16.332;2023-04-24T01:56:51;15.10;88.10
17843;DHT22;69286;48.222;16.332;2023-04-24T01:59:20;15.10;88.20
17843;DHT22;69286;48.222;16.332;2023-04-24T02:01:48;15.00;88.70
17843;DHT22;69286;48.222;16.332;2023-04-24T02:04:15;14.90;89.00
17843;DHT22;69286;48.222;16.332;2023-04-24T02:06:42;14.80;89.60
17843;DHT22;69286;48.222;16.332;2023-04-24T02:09:09;14.80;89.50
17843;DHT22;69286;48.222;16.332;2023-04-24T02:11:36;14.80;89.30
17843;DHT22;69286;48.222;16.332;2023-04-24T02:14:04;14.70;89.90
17843;DHT22;69286;48.222;16.332;2023-04-24T02:16:31;14.70;90.20
17843;DHT22;69286;48.222;16.332;2023-04-24T02:18:58;14.60;90.00
17843;DHT22;69286;48.222;16.332;2023-04-24T02:21:25;14.60;90.00
17843;DHT22;69286;48.222;16.332;2023-04-24T02:23:53;14.60;90.00
17843;DHT22;69286;48.222;16.332;2023-04-24T02:26:20;14.50;90.00
17843;DHT22;69286;48.222;16.332;2023-04-24T02:28:47;14.50;89.80
17843;DHT22;69286;48.222;16.332;2023-04-24T02:31:15;14.50;89.80
17843;DHT22;69286;48.222;16.332;2023-04-24T02:33:42;14.40;90.20
17843;DHT22;69286;48.222;16.332;2023-04-24T02:36:09;14.30;90.20
17843;DHT22;69286;48.222;16.332;2023-04-24T02:38:36;14.30;90.20
17843;DHT22;69286;48.222;16.332;2023-04-24T02:41:03;14.30;90.30
17843;DHT22;69286;48.222;16.332;2023-04-24T02:43:31;14.30;90.40
17843;DHT22;69286;48.222;16.332;2023-04-24T02:45:59;14.20;90.60
17843;DHT22;69286;48.222;16.332;2023-04-24T02:48:27;14.30;90.60
17843;DHT22;69286;48.222;16.332;2023-04-24T02:50:54;14.30;90.20
17843;DHT22;69286;48.222;16.332;2023-04-24T02:53:23;14.30;90.40
17843;DHT22;69286;48.222;16.332;2023-04-24T02:55:50;14.30;90.50
17843;DHT22;69286;48.222;16.332;2023-04-24T02:58:17;14.40;90.70
17843;DHT22;69286;48.222;16.332;2023-04-24T03:00:45;14.30;90.40
17843;DHT22;69286;48.222;16.332;2023-04-24T03:03:12;14.20;90.80
17843;DHT22;69286;48.222;16.332;2023-04-24T03:05:42;14.20;90.80
17843;DHT22;69286;48.222;16.332;2023-04-24T03:08:08;14.10;91.00
17843;DHT22;69286;48.222;16.332;2023-04-24T03:10:35;14.10;91.10
17843;DHT22;69286;48.222;16.332;2023-04-24T03:13:02;14.00;91.20
17843;DHT22;69286;48.222;16.332;2023-04-24T03:15:29;14.00;91.60
17843;DHT22;69286;48.222;16.332;2023-04-24T03:17:56;13.90;91.80
17843;DHT22;69286;48.222;16.332;2023-04-24T03:20:23;13.90;91.80
17843;DHT22;69286;48.222;16.332;2023-04-24T03:22:52;13.90;92.00
17843;DHT22;69286;48.222;16.332;2023-04-24T03:25:20;13.90;92.30
17843;DHT22;69286;48.222;16.332;2023-04-24T03:27:46;13.90;92.50
17843;DHT22;69286;48.222;16.332;2023-04-24T03:30:14;13.80;92.70
17843;DHT22;69286;48.222;16.332;2023-04-24T03:32:41;13.90;92.70
17843;DHT22;69286;48.222;16.332;2023-04-24T03:35:08;13.90;92.90
17843;DHT22;69286;48.222;16.332;2023-04-24T03:37:35;14.00;92.70
17843;DHT22;69286;48.222;16.332;2023-04-24T03:40:04;14.00;92.70
17843;DHT22;69286;48.222;16.332;2023-04-24T03:42:32;14.00;92.90
17843;DHT22;69286;48.222;16.332;2023-04-24T03:44:59;14.00;92.80
17843;DHT22;69286;48.222;16.332;2023-04-24T03:47:26;14.00;92.80
17843;DHT22;69286;48.222;16.332;2023-04-24T03:49:53;14.10;92.80
17843;DHT22;69286;48.222;16.332;2023-04-24T03:52:21;14.10;92.90
17843;DHT22;69286;48.222;16.332;2023-04-24T03:54:48;14.10;93.20
17843;DHT22;69286;48.222;16.332;2023-04-24T03:57:16;14.10;92.90
17843;DHT22;69286;48.222;16.332;2023-04-24T03:59:43;14.10;93.00
17843;DHT22;69286;48.222;16.332;2023-04-24T04:02:10;14.20;93.00
17843;DHT22;69286;48.222;16.332;2023-04-24T04:04:37;14.20;93.00
17843;DHT22;69286;48.222;16.332;2023-04-24T04:07:04;14.20;93.00
17843;DHT22;69286;48.222;16.332;2023-04-24T04:09:31;14.30;92.90
17843;DHT22;69286;48.222;16.332;2023-04-24T04:11:58;14.30;93.00
17843;DHT22;69286;48.222;16.332;2023-04-24T04:14:27;14.20;93.00
17843;DHT22;69286;48.222;16.332;2023-04-24T04:16:54;14.30;92.90
17843;DHT22;69286;48.222;16.332;2023-04-24T04:19:21;14.30;92.80
17843;DHT22;69286;48.222;16.332;2023-04-24T04:21:48;14.30;92.80
17843;DHT22;69286;48.222;16.332;2023-04-24T04:24:18;14.40;92.60
17843;DHT22;69286;48.222;16.332;2023-04-24T04:26:46;14.40;92.60
17843;DHT22;69286;48.222;16.332;2023-04-24T04:29:16;14.40;92.50
17843;DHT22;69286;48.222;16.332;2023-04-24T04:31:45;14.50;92.20
17843;DHT22;69286;48.222;16.332;2023-04-24T04:34:12;14.50;92.00
17843;DHT22;69286;48.222;16.332;2023-04-24T04:36:40;14.50;92.20
17843;DHT22;69286;48.222;16.332;2023-04-24T04:39:07;14.60;91.60
17843;DHT22;69286;48.222;16.332;2023-04-24T04:41:34;14.60;91.40
17843;DHT22;69286;48.222;16.332;2023-04-24T04:44:01;14.70;91.30
17843;DHT22;69286;48.222;16.332;2023-04-24T04:46:30;14.80;91.00
17843;DHT22;69286;48.222;16.332;2023-04-24T04:49:01;14.80;90.80
17843;DHT22;69286;48.222;16.332;2023-04-24T04:51:28;14.90;90.60
17843;DHT22;69286;48.222;16.332;2023-04-24T04:53:55;14.90;90.40
17843;DHT22;69286;48.222;16.332;2023-04-24T04:56:22;15.00;90.20
17843;DHT22;69286;48.222;16.332;2023-04-24T04:58:50;14.90;90.20
17843;DHT22;69286;48.222;16.332;2023-04-24T05:01:17;15.00;89.90
17843;DHT22;69286;48.222;16.332;2023-04-24T05:03:44;15.20;89.20
17843;DHT22;69286;48.222;16.332;2023-04-24T05:06:12;15.30;88.50
17843;DHT22;69286;48.222;16.332;2023-04-24T05:08:39;15.50;87.10
17843;DHT22;69286;48.222;16.332;2023-04-24T05:11:06;15.70;85.70
17843;DHT22;69286;48.222;16.332;2023-04-24T05:13:33;16.00;84.20
17843;DHT22;69286;48.222;16.332;2023-04-24T05:16:00;16.20;83.10
17843;DHT22;69286;48.222;16.332;2023-04-24T05:18:27;16.40;82.00
17843;DHT22;69286;48.222;16.332;2023-04-24T05:20:54;16.60;80.10
17843;DHT22;69286;48.222;16.332;2023-04-24T05:23:23;17.00;79.10
17843;DHT22;69286;48.222;16.332;2023-04-24T05:25:50;17.30;76.90
17843;DHT22;69286;48.222;16.332;2023-04-24T05:28:17;17.50;75.10
17843;DHT22;69286;48.222;16.332;2023-04-24T05:30:44;17.50;74.50
17843;DHT22;69286;48.222;16.332;2023-04-24T05:33:11;17.50;74.90
17843;DHT22;69286;48.222;16.332;2023-04-24T05:35:40;17.40;74.80
17843;DHT22;69286;48.222;16.332;2023-04-24T05:38:11;17.30;75.10
17843;DHT22;69286;48.222;16.332;2023-04-24T05:40:40;17.20;75.20
17843;DHT22;69286;48.222;16.332;2023-04-24T05:43:07;17.20;75.70
17843;DHT22;69286;48.222;16.332;2023-04-24T05:45:34;17.20;75.90
17843;DHT22;69286;48.222;16.332;2023-04-24T05:48:02;17.20;74.80
17843;DHT22;69286;48.222;16.332;2023-04-24T05:50:29;17.10;75.20
17843;DHT22;69286;48.222;16.332;2023-04-24T05:52:56;17.10;75.10
17843;DHT22;69286;48.222;16.332;2023-04-24T05:55:24;17.00;75.30
17843;DHT22;69286;48.222;16.332;2023-04-24T05:57:52;17.10;74.90
17843;DHT22;69286;48.222;16.332;2023-04-24T06:00:19;17.00;74.50
17843;DHT22;69286;48.222;16.332;2023-04-24T06:02:47;16.80;75.30
17843;DHT22;69286;48.222;16.332;2023-04-24T06:05:14;16.80;75.70
17843;DHT22;69286;48.222;16.332;2023-04-24T06:07:41;16.70;75.60
17843;DHT22;69286;48.222;16.332;2023-04-24T06:10:09;16.70;75.60
17843;DHT22;69286;48.222;16.332;2023-04-24T06:12:36;16.70;75.60
17843;DHT22;69286;48.222;16.332;2023-04-24T06:15:06;16.60;75.60
17843;DHT22;69286;48.222;16.332;2023-04-24T06:17:33;16.60;75.80
17843;DHT22;69286;48.222;16.332;2023-04-24T06:20:00;16.60;76.00
17843;DHT22;69286;48.222;16.332;2023-04-24T06:22:29;16.60;75.80
17843;DHT22;69286;48.222;16.332;2023-04-24T06:24:56;16.60;76.40
17843;DHT22;69286;48.222;16.332;2023-04-24T06:27:23;16.60;76.10
17843;DHT22;69286;48.222;16.332;2023-04-24T06:29:50;16.70;75.90
17843;DHT22;69286;48.222;16.332;2023-04-24T06:32:22;16.70;75.60
17843;DHT22;69286;48.222;16.332;2023-04-24T06:34:50;16.70;75.30
17843;DHT22;69286;48.222;16.332;2023-04-24T06:37:17;16.80;75.30
17843;DHT22;69286;48.222;16.332;2023-04-24T06:39:45;16.80;74.90
17843;DHT22;69286;48.222;16.332;2023-04-24T06:42:12;16.90;74.90
17843;DHT22;69286;48.222;16.332;2023-04-24T06:44:39;17.00;74.80
17843;DHT22;69286;48.222;16.332;2023-04-24T06:47:07;17.20;74.00
17843;DHT22;69286;48.222;16.332;2023-04-24T06:49:36;17.20;73.40
17843;DHT22;69286;48.222;16.332;2023-04-24T06:52:04;17.40;72.80
17843;DHT22;69286;48.222;16.332;2023-04-24T06:54:32;17.30;72.40
17843;DHT22;69286;48.222;16.332;2023-04-24T06:56:59;17.40;71.90
17843;DHT22;69286;48.222;16.332;2023-04-24T06:59:28;17.50;71.30
17843;DHT22;69286;48.222;16.332;2023-04-24T07:01:56;17.60;71.10
17843;DHT22;69286;48.222;16.332;2023-04-24T07:04:23;17.60;70.20
17843;DHT22;69286;48.222;16.332;2023-04-24T07:06:52;17.60;70.40
17843;DHT22;69286;48.222;16.332;2023-04-24T07:09:21;17.60;70.40
17843;DHT22;69286;48.222;16.332;2023-04-24T07:11:49;17.50;70.00
17843;DHT22;69286;48.222;16.332;2023-04-24T07:14:17;17.50;70.30
17843;DHT22;69286;48.222;16.332;2023-04-24T07:16:44;17.50;70.60
17843;DHT22;69286;48.222;16.332;2023-04-24T07:19:11;17.50;70.60
17843;DHT22;69286;48.222;16.332;2023-04-24T07:21:38;17.50;70.90
17843;DHT22;69286;48.222;16.332;2023-04-24T07:24:07;17.50;70.90
17843;DHT22;69286;48.222;16.332;2023-04-24T07:26:37;17.60;71.60
17843;DHT22;69286;48.222;16.332;2023-04-24T07:29:07;17.60;71.10
17843;DHT22;69286;48.222;16.332;2023-04-24T07:31:34;17.50;71.00
17843;DHT22;69286;48.222;16.332;2023-04-24T07:34:01;17.70;71.40
17843;DHT22;69286;48.222;16.332;2023-04-24T07:36:28;17.60;71.70
17843;DHT22;69286;48.222;16.332;2023-04-24T07:38:55;17.60;72.10
17843;DHT22;69286;48.222;16.332;2023-04-24T07:41:24;17.60;71.70
17843;DHT22;69286;48.222;16.332;2023-04-24T07:43:53;17.70;72.00
17843;DHT22;69286;48.222;16.332;2023-04-24T07:46:20;17.60;72.50
17843;DHT22;69286;48.222;16.332;2023-04-24T07:48:48;17.70;72.20
17843;DHT22;69286;48.222;16.332;2023-04-24T07:51:16;17.80;72.00
17843;DHT22;69286;48.222;16.332;2023-04-24T07:53:43;17.80;71.50
17843;DHT22;69286;48.222;16.332;2023-04-24T07:56:10;18.00;71.60
17843;DHT22;69286;48.222;16.332;2023-04-24T07:58:38;18.00;72.00
17843;DHT22;69286;48.222;16.332;2023-04-24T08:01:06;17.90;74.40
17843;DHT22;69286;48.222;16.332;2023-04-24T08:03:33;17.70;74.20
17843;DHT22;69286;48.222;16.332;2023-04-24T08:06:00;17.70;75.90
17843;DHT22;69286;48.222;16.332;2023-04-24T08:08:27;17.50;77.40
17843;DHT22;69286;48.222;16.332;2023-04-24T08:10:54;17.40;78.40
17843;DHT22;69286;48.222;16.332;2023-04-24T08:13:21;17.20;80.40
17843;DHT22;69286;48.222;16.332;2023-04-24T08:15:50;17.20;80.30
17843;DHT22;69286;48.222;16.332;2023-04-24T08:18:17;17.20;79.60
17843;DHT22;69286;48.222;16.332;2023-04-24T08:20:44;17.20;78.50
17843;DHT22;69286;48.222;16.332;2023-04-24T08:23:11;17.10;77.40
17843;DHT22;69286;48.222;16.332;2023-04-24T08:25:39;17.10;77.30
17843;DHT22;69286;48.222;16.332;2023-04-24T08:28:08;17.00;76.30
17843;DHT22;69286;48.222;16.332;2023-04-24T08:30:35;16.90;75.90
17843;DHT22;69286;48.222;16.332;2023-04-24T08:33:05;16.80;76.40
17843;DHT22;69286;48.222;16.332;2023-04-24T08:35:32;16.70;76.70
17843;DHT22;69286;48.222;16.332;2023-04-24T08:37:59;16.60;77.00
17843;DHT22;69286;48.222;16.332;2023-04-24T08:40:28;16.60;77.50
17843;DHT22;69286;48.222;16.332;2023-04-24T08:42:55;16.50;77.50
17843;DHT22;69286;48.222;16.332;2023-04-24T08:45:23;16.30;80.40
17843;DHT22;69286;48.222;16.332;2023-04-24T08:47:50;16.10;83.80
17843;DHT22;69286;48.222;16.332;2023-04-24T08:50:20;16.00;85.90
17843;DHT22;69286;48.222;16.332;2023-04-24T08:52:49;16.00;87.80
17843;DHT22;69286;48.222;16.332;2023-04-24T08:55:19;15.80;90.10
17843;DHT22;69286;48.222;16.332;2023-04-24T08:57:50;15.60;91.90
17843;DHT22;69286;48.222;16.332;2023-04-24T09:00:19;15.60;91.90
17843;DHT22;69286;48.222;16.332;2023-04-24T09:02:48;15.60;91.40
17843;DHT22;69286;48.222;16.332;2023-04-24T09:05:16;15.60;91.50
17843;DHT22;69286;48.222;16.332;2023-04-24T09:07:50;15.60;91.10
17843;DHT22;69286;48.222;16.332;2023-04-24T09:10:20;15.40;91.80
17843;DHT22;69286;48.222;16.332;2023-04-24T09:12:48;15.30;92.20
17843;DHT22;69286;48.222;16.332;2023-04-24T09:15:16;15.20;92.70
17843;DHT22;69286;48.222;16.332;2023-04-24T09:17:44;15.10;93.80
17843;DHT22;69286;48.222;16.332;2023-04-24T09:20:11;15.20;93.60
17843;DHT22;69286;48.222;16.332;2023-04-24T09:22:38;15.20;93.20
17843;DHT22;69286;48.222;16.332;2023-04-24T09:25:09;15.20;92.60
17843;DHT22;69286;48.222;16.332;2023-04-24T09:27:42;15.20;91.60
17843;DHT22;69286;48.222;16.332;2023-04-24T09:30:11;15.20;91.30
17843;DHT22;69286;48.222;16.332;2023-04-24T09:32:38;15.00;91.70
17843;DHT22;69286;48.222;16.332;2023-04-24T09:35:07;14.90;92.00
17843;DHT22;69286;48.222;16.332;2023-04-24T09:37:46;14.90;92.10
17843;DHT22;69286;48.222;16.332;2023-04-24T09:40:17;14.90;91.80
17843;DHT22;69286;48.222;16.332;2023-04-24T09:42:46;14.90;91.60
17843;DHT22;69286;48.222;16.332;2023-04-24T09:45:13;15.00;91.10
17843;DHT22;69286;48.222;16.332;2023-04-24T09:47:41;14.90;91.30
17843;DHT22;69286;48.222;16.332;2023-04-24T09:50:13;14.90;90.70
17843;DHT22;69286;48.222;16.332;2023-04-24T09:52:42;15.00;90.50
17843;DHT22;69286;48.222;16.332;2023-04-24T09:55:18;14.90;90.30
17843;DHT22;69286;48.222;16.332;2023-04-24T09:57:50;15.00;90.00
17843;DHT22;69286;48.222;16.332;2023-04-24T10:00:20;14.90;89.30
17843;DHT22;69286;48.222;16.332;2023-04-24T10:02:55;14.80;90.30
17843;DHT22;69286;48.222;16.332;2023-04-24T10:05:28;14.80;90.30
17843;DHT22;69286;48.222;16.332;2023-04-24T10:08:01;14.80;90.10
17843;DHT22;69286;48.222;16.332;2023-04-24T10:10:30;14.80;89.60
17843;DHT22;69286;48.222;16.332;2023-04-24T10:12:57;14.90;89.90
17843;DHT22;69286;48.222;16.332;2023-04-24T10:15:28;14.90;89.60
17843;DHT22;69286;48.222;16.332;2023-04-24T10:17:58;14.80;90.00
17843;DHT22;69286;48.222;16.332;2023-04-24T10:20:27;14.80;89.90
17843;DHT22;69286;48.222;16.332;2023-04-24T10:22:55;14.80;89.80
17843;DHT22;69286;48.222;16.332;2023-04-24T10:25:24;14.70;90.30
17843;DHT22;69286;48.222;16.332;2023-04-24T10:27:53;14.70;90.90
17843;DHT22;69286;48.222;16.332;2023-04-24T10:30:23;14.70;91.30
17843;DHT22;69286;48.222;16.332;2023-04-24T10:32:50;14.60;91.20
17843;DHT22;69286;48.222;16.332;2023-04-24T10:35:18;14.60;91.20
17843;DHT22;69286;48.222;16.332;2023-04-24T10:37:50;14.60;91.70
17843;DHT22;69286;48.222;16.332;2023-04-24T10:40:19;14.60;91.90
17843;DHT22;69286;48.222;16.332;2023-04-24T10:42:53;14.60;91.90
17843;DHT22;69286;48.222;16.332;2023-04-24T10:45:21;14.50;92.00
17843;DHT22;69286;48.222;16.332;2023-04-24T10:47:56;14.50;92.40
17843;DHT22;69286;48.222;16.332;2023-04-24T10:50:25;14.50;92.70
17843;DHT22;69286;48.222;16.332;2023-04-24T10:52:52;14.30;93.20
17843;DHT22;69286;48.222;16.332;2023-04-24T10:55:43;14.30;93.10
17843;DHT22;69286;48.222;16.332;2023-04-24T10:58:11;14.40;92.80
17843;DHT22;69286;48.222;16.332;2023-04-24T11:00:40;14.40;93.20
17843;DHT22;69286;48.222;16.332;2023-04-24T11:03:09;14.40;93.40
17843;DHT22;69286;48.222;16.332;2023-04-24T11:06:08;14.50;94.40
17843;DHT22;69286;48.222;16.332;2023-04-24T11:08:39;14.60;94.70
17843;DHT22;69286;48.222;16.332;2023-04-24T11:11:10;14.60;94.70
17843;DHT22;69286;48.222;16.332;2023-04-24T11:14:04;14.60;95.00
17843;DHT22;69286;48.222;16.332;2023-04-24T11:16:33;14.50;95.40
17843;DHT22;69286;48.222;16.332;2023-04-24T11:19:02;14.50;95.90
17843;DHT22;69286;48.222;16.332;2023-04-24T11:21:31;14.70;95.80
17843;DHT22;69286;48.222;16.332;2023-04-24T11:23:58;14.70;95.20
17843;DHT22;69286;48.222;16.332;2023-04-24T11:26:45;14.70;94.90
17843;DHT22;69286;48.222;16.332;2023-04-24T11:29:14;14.70;96.00
17843;DHT22;69286;48.222;16.332;2023-04-24T11:31:43;14.70;96.00
17843;DHT22;69286;48.222;16.332;2023-04-24T11:34:14;14.70;96.30
17843;DHT22;69286;48.222;16.332;2023-04-24T11:36:43;14.80;96.00
17843;DHT22;69286;48.222;16.332;2023-04-24T11:39:11;14.80;96.70
17843;DHT22;69286;48.222;16.332;2023-04-24T11:41:39;14.80;95.50
17843;DHT22;69286;48.222;16.332;2023-04-24T11:44:07;14.80;95.90
17843;DHT22;69286;48.222;16.332;2023-04-24T11:46:36;15.00;96.40
17843;DHT22;69286;48.222;16.332;2023-04-24T11:49:05;15.00;96.00
17843;DHT22;69286;48.222;16.332;2023-04-24T11:51:32;15.10;96.20
17843;DHT22;69286;48.222;16.332;2023-04-24T11:54:01;15.20;96.20
17843;DHT22;69286;48.222;16.332;2023-04-24T11:56:28;15.20;96.00
17843;DHT22;69286;48.222;16.332;2023-04-24T11:58:56;15.20;96.60
17843;DHT22;69286;48.222;16.332;2023-04-24T12:01:23;15.20;95.80
17843;DHT22;69286;48.222;16.332;2023-04-24T12:03:59;15.10;95.70
17843;DHT22;69286;48.222;16.332;2023-04-24T12:06:26;15.20;96.20
17843;DHT22;69286;48.222;16.332;2023-04-24T12:08:53;15.20;95.60
17843;DHT22;69286;48.222;16.332;2023-04-24T12:11:23;15.20;95.80
17843;DHT22;69286;48.222;16.332;2023-04-24T12:13:52;15.40;95.90
17843;DHT22;69286;48.222;16.332;2023-04-24T12:16:19;15.50;96.20
17843;DHT22;69286;48.222;16.332;2023-04-24T12:18:46;15.60;96.00
17843;DHT22;69286;48.222;16.332;2023-04-24T12:21:20;15.80;96.00
17843;DHT22;69286;48.222;16.332;2023-04-24T12:23:47;15.90;95.20
17843;DHT22;69286;48.222;16.332;2023-04-24T12:26:18;15.90;95.40
17843;DHT22;69286;48.222;16.332;2023-04-24T12:28:47;15.90;95.10
17843;DHT22;69286;48.222;16.332;2023-04-24T12:31:15;16.00;95.60
17843;DHT22;69286;48.222;16.332;2023-04-24T12:33:43;16.10;95.50
17843;DHT22;69286;48.222;16.332;2023-04-24T12:36:11;16.10;94.30
17843;DHT22;69286;48.222;16.332;2023-04-24T12:38:43;16.10;94.20
17843;DHT22;69286;48.222;16.332;2023-04-24T12:41:13;16.30;94.20
17843;DHT22;69286;48.222;16.332;2023-04-24T12:43:51;16.30;94.10
17843;DHT22;69286;48.222;16.332;2023-04-24T12:46:18;16.20;95.10
17843;DHT22;69286;48.222;16.332;2023-04-24T12:48:45;16.30;94.50
17843;DHT22;69286;48.222;16.332;2023-04-24T12:51:12;16.20;94.60
17843;DHT22;69286;48.222;16.332;2023-04-24T12:53:41;16.30;94.30
17843;DHT22;69286;48.222;16.332;2023-04-24T12:56:08;16.20;94.30
17843;DHT22;69286;48.222;16.332;2023-04-24T12:58:35;16.20;94.10
17843;DHT22;69286;48.222;16.332;2023-04-24T13:01:02;16.20;94.40
17843;DHT22;69286;48.222;16.332;2023-04-24T13:03:29;16.30;94.00
17843;DHT22;69286;48.222;16.332;2023-04-24T13:05:56;16.30;94.10
17843;DHT22;69286;48.222;16.332;2023-04-24T13:08:23;16.30;94.30
17843;DHT22;69286;48.222;16.332;2023-04-24T13:10:53;16.40;93.30
17843;DHT22;69286;48.222;16.332;2023-04-24T13:13:21;16.40;93.00
17843;DHT22;69286;48.222;16.332;2023-04-24T13:15:48;16.40;93.30
17843;DHT22;69286;48.222;16.332;2023-04-24T13:18:15;16.50;92.80
17843;DHT22;69286;48.222;16.332;2023-04-24T13:20:42;16.60;92.70
17843;DHT22;69286;48.222;16.332;2023-04-24T13:23:09;16.60;92.20
17843;DHT22;69286;48.222;16.332;2023-04-24T13:25:36;16.60;92.00
17843;DHT22;69286;48.222;16.332;2023-04-24T13:28:05;16.50;91.40
17843;DHT22;69286;48.222;16.332;2023-04-24T13:30:32;16.50;91.80
17843;DHT22;69286;48.222;16.332;2023-04-24T13:33:00;16.50;91.30
17843;DHT22;69286;48.222;16.332;2023-04-24T13:35:27;16.40;91.60
17843;DHT22;69286;48.222;16.332;2023-04-24T13:37:54;16.40;91.90
17843;DHT22;69286;48.222;16.332;2023-04-24T13:40:21;16.40;92.70
17843;DHT22;69286;48.222;16.332;2023-04-24T13:42:48;16.40;92.40
17843;DHT22;69286;48.222;16.332;2023-04-24T13:45:17;16.40;92.60
17843;DHT22;69286;48.222;16.332;2023-04-24T13:47:44;16.40;92.60
17843;DHT22;69286;48.222;16.332;2023-04-24T13:50:11;16.40;93.00
17843;DHT22;69286;48.222;16.332;2023-04-24T13:52:38;16.40;93.50
17843;DHT22;69286;48.222;16.332;2023-04-24T13:55:06;16.30;93.00
17843;DHT22;69286;48.222;16.332;2023-04-24T13:57:34;16.20;93.50
17843;DHT22;69286;48.222;16.332;2023-04-24T14:00:01;16.10;93.40
17843;DHT22;69286;48.222;16.332;2023-04-24T14:02:30;16.10;94.10
17843;DHT22;69286;48.222;16.332;2023-04-24T14:04:57;16.00;94.40
17843;DHT22;69286;48.222;16.332;2023-04-24T14:07:24;15.90;94.40
17843;DHT22;69286;48.222;16.332;2023-04-24T14:09:51;15.90;94.90
17843;DHT22;69286;48.222;16.332;2023-04-24T14:12:18;15.90;94.90
17843;DHT22;69286;48.222;16.332;2023-04-24T14:14:46;15.80;95.80
17843;DHT22;69286;48.222;16.332;2023-04-24T14:17:14;15.90;96.10
17843;DHT22;69286;48.222;16.332;2023-04-24T14:19:42;15.90;95.50
17843;DHT22;69286;48.222;16.332;2023-04-24T14:22:10;15.80;96.00
17843;DHT22;69286;48.222;16.332;2023-04-24T14:24:37;15.70;95.80
17843;DHT22;69286;48.222;16.332;2023-04-24T14:27:04;15.80;95.70
17843;DHT22;69286;48.222;16.332;2023-04-24T14:29:31;15.70;95.40
17843;DHT22;69286;48.222;16.332;2023-04-24T14:31:58;15.80;95.40
17843;DHT22;69286;48.222;16.332;2023-04-24T14:34:25;15.80;95.80
17843;DHT22;69286;48.222;16.332;2023-04-24T14:36:53;15.90;95.80
17843;DHT22;69286;48.222;16.332;2023-04-24T14:39:20;15.90;95.50
17843;DHT22;69286;48.222;16.332;2023-04-24T14:41:47;15.90;95.60
17843;DHT22;69286;48.222;16.332;2023-04-24T14:44:14;15.90;94.80
17843;DHT22;69286;48.222;16.332;2023-04-24T14:46:41;15.80;94.30
17843;DHT22;69286;48.222;16.332;2023-04-24T14:49:09;15.70;94.90
17843;DHT22;69286;48.222;16.332;2023-04-24T14:51:37;15.70;94.50
17843;DHT22;69286;48.222;16.332;2023-04-24T14:54:06;15.70;94.80
17843;DHT22;69286;48.222;16.332;2023-04-24T14:56:33;15.50;95.50
17843;DHT22;69286;48.222;16.332;2023-04-24T14:59:00;15.50;95.20
17843;DHT22;69286;48.222;16.332;2023-04-24T15:01:27;15.40;95.80
17843;DHT22;69286;48.222;16.332;2023-04-24T15:03:54;15.50;96.00
17843;DHT22;69286;48.222;16.332;2023-04-24T15:06:21;15.50;95.80
17843;DHT22;69286;48.222;16.332;2023-04-24T15:08:48;15.40;96.20
17843;DHT22;69286;48.222;16.332;2023-04-24T15:11:17;15.40;96.50
17843;DHT22;69286;48.222;16.332;2023-04-24T15:13:44;15.30;96.80
17843;DHT22;69286;48.222;16.332;2023-04-24T15:16:11;15.30;96.50
17843;DHT22;69286;48.222;16.332;2023-04-24T15:18:41;15.20;97.00
17843;DHT22;69286;48.222;16.332;2023-04-24T15:21:08;15.20;97.30